sensor_id;sensor_type;location;lat;lon;timestamp;pressure;altitude;pressure_sealevel;temperature;humidity
19150;BME280;9707;49.158;8.632;2023-02-04T00:01:08;101763.72;;;17.96;41.71
19150;BME280;9707;49.158;8.632;2023-02-04T00:03:33;101766.50;;;17.94;41.74
19150;BME280;9707;49.158;8.632;2023-02-04T00:05:59;101762.94;;;17.94;41.86
19150;BME280;9707;49.158;8.632;2023-02-04T00:08:24;101766.50;;;17.94;41.82
19150;BME280;9707;49.158;8.632;2023-02-04T00:10:49;101771.03;;;17.94;41.75
19150;BME280;9707;49.158;8.632;2023-02-04T00:13:14;101775.59;;;17.92;41.66
19150;BME280;9707;49.158;8.632;2023-02-04T00:15:40;101775.53;;;17.93;41.97
19150;BME280;9707;49.158;8.632;2023-02-04T00:18:05;101787.22;;;17.94;41.95
19150;BME280;9707;49.158;8.632;2023-02-04T00:20:31;101781.81;;;17.94;41.84
19150;BME280;9707;49.158;8.632;2023-02-04T00:22:57;101788.16;;;17.93;42.21
19150;BME280;9707;49.158;8.632;2023-02-04T00:25:22;101788.22;;;17.91;42.12
19150;BME280;9707;49.158;8.632;2023-02-04T00:27:47;101779.25;;;17.91;42.18
19150;BME280;9707;49.158;8.632;2023-02-04T00:30:13;101776.63;;;17.89;42.20
19150;BME280;9707;49.158;8.632;2023-02-04T00:32:38;101788.34;;;17.88;42.06
19150;BME280;9707;49.158;8.632;2023-02-04T00:35:03;101803.59;;;17.89;42.18
19150;BME280;9707;49.158;8.632;2023-02-04T00:37:30;101794.63;;;17.89;42.26
19150;BME280;9707;49.158;8.632;2023-02-04T00:39:55;101800.97;;;17.88;42.31
19150;BME280;9707;49.158;8.632;2023-02-04T00:42:21;101807.28;;;17.87;42.64
19150;BME280;9707;49.158;8.632;2023-02-04T00:44:46;101812.69;;;17.87;42.25
19150;BME280;9707;49.158;8.632;2023-02-04T00:47:11;101817.22;;;17.86;42.19
19150;BME280;9707;49.158;8.632;2023-02-04T00:49:37;101814.47;;;17.88;42.27
19150;BME280;9707;49.158;8.632;2023-02-04T00:52:02;101827.00;;;17.89;42.28
19150;BME280;9707;49.158;8.632;2023-02-04T00:54:27;101817.94;;;17.90;42.32
19150;BME280;9707;49.158;8.632;2023-02-04T00:56:53;101827.00;;;17.89;42.30
19150;BME280;9707;49.158;8.632;2023-02-04T00:59:18;101828.72;;;17.90;42.44
19150;BME280;9707;49.158;8.632;2023-02-04T01:01:43;101826.03;;;17.90;42.43
19150;BME280;9707;49.158;8.632;2023-02-04T01:04:09;101817.94;;;17.90;42.38
19150;BME280;9707;49.158;8.632;2023-02-04T01:06:34;101821.44;;;17.92;42.33
19150;BME280;9707;49.158;8.632;2023-02-04T01:09:00;101810.66;;;17.92;42.10
19150;BME280;9707;49.158;8.632;2023-02-04T01:11:26;101816.88;;;17.94;42.23
19150;BME280;9707;49.158;8.632;2023-02-04T01:13:52;101824.00;;;17.95;42.36
19150;BME280;9707;49.158;8.632;2023-02-04T01:16:18;101819.50;;;17.95;42.38
19150;BME280;9707;49.158;8.632;2023-02-04T01:18:43;101819.50;;;17.95;42.27
19150;BME280;9707;49.158;8.632;2023-02-04T01:21:09;101822.19;;;17.95;42.42
19150;BME280;9707;49.158;8.632;2023-02-04T01:23:35;101829.41;;;17.95;42.40
19150;BME280;9707;49.158;8.632;2023-02-04T01:26:01;101822.19;;;17.95;42.41
19150;BME280;9707;49.158;8.632;2023-02-04T01:28:26;101825.81;;;17.94;42.62
19150;BME280;9707;49.158;8.632;2023-02-04T01:30:52;101834.00;;;17.93;42.50
19150;BME280;9707;49.158;8.632;2023-02-04T01:33:17;101840.31;;;17.92;42.44
19150;BME280;9707;49.158;8.632;2023-02-04T01:35:42;101833.16;;;17.91;42.46
19150;BME280;9707;49.158;8.632;2023-02-04T01:38:08;101835.88;;;17.91;42.38
19150;BME280;9707;49.158;8.632;2023-02-04T01:40:33;101837.59;;;17.92;42.53
19150;BME280;9707;49.158;8.632;2023-02-04T01:42:59;101844.84;;;17.91;42.54
19150;BME280;9707;49.158;8.632;2023-02-04T01:45:24;101840.41;;;17.90;42.65
19150;BME280;9707;49.158;8.632;2023-02-04T01:47:50;101854.91;;;17.88;42.58
19150;BME280;9707;49.158;8.632;2023-02-04T01:50:16;101854.00;;;17.87;42.58
19150;BME280;9707;49.158;8.632;2023-02-04T01:52:43;101857.59;;;17.88;42.74
19150;BME280;9707;49.158;8.632;2023-02-04T01:55:12;101855.81;;;17.87;42.85
19150;BME280;9707;49.158;8.632;2023-02-04T01:57:38;101851.38;;;17.86;42.72
19150;BME280;9707;49.158;8.632;2023-02-04T02:00:08;101845.91;;;17.87;42.81
19150;BME280;9707;49.158;8.632;2023-02-04T02:05:13;101850.31;;;17.90;42.76
19150;BME280;9707;49.158;8.632;2023-02-04T02:07:39;101854.91;;;17.88;42.47
19150;BME280;9707;49.158;8.632;2023-02-04T02:10:06;101857.66;;;17.86;42.57
19150;BME280;9707;49.158;8.632;2023-02-04T02:12:32;101861.38;;;17.84;42.42
19150;BME280;9707;49.158;8.632;2023-02-04T02:14:58;101865.00;;;17.83;42.20
19150;BME280;9707;49.158;8.632;2023-02-04T02:17:24;101867.72;;;17.83;42.26
19150;BME280;9707;49.158;8.632;2023-02-04T02:19:49;101872.22;;;17.82;42.12
19150;BME280;9707;49.158;8.632;2023-02-04T02:22:26;101870.41;;;17.83;42.14
19150;BME280;9707;49.158;8.632;2023-02-04T02:24:53;101863.25;;;17.82;42.06
19150;BME280;9707;49.158;8.632;2023-02-04T02:27:18;101872.16;;;17.84;41.98
19150;BME280;9707;49.158;8.632;2023-02-04T02:29:44;101869.47;;;17.84;41.97
19150;BME280;9707;49.158;8.632;2023-02-04T02:32:10;101881.25;;;17.81;41.82
19150;BME280;9707;49.158;8.632;2023-02-04T02:34:37;101879.50;;;17.80;41.90
19150;BME280;9707;49.158;8.632;2023-02-04T02:37:03;101879.56;;;17.79;41.94
19150;BME280;9707;49.158;8.632;2023-02-04T02:39:30;101867.91;;;17.78;41.70
19150;BME280;9707;49.158;8.632;2023-02-04T02:41:56;101877.72;;;17.79;41.67
19150;BME280;9707;49.158;8.632;2023-02-04T02:44:22;101884.97;;;17.79;41.64
19150;BME280;9707;49.158;8.632;2023-02-04T02:46:48;101877.81;;;17.78;41.51
19150;BME280;9707;49.158;8.632;2023-02-04T02:49:16;101877.06;;;17.74;41.70
19150;BME280;9707;49.158;8.632;2023-02-04T02:51:42;101871.75;;;17.73;41.57
19150;BME280;9707;49.158;8.632;2023-02-04T02:54:21;101875.31;;;17.73;41.37
19150;BME280;9707;49.158;8.632;2023-02-04T02:56:48;101884.34;;;17.72;41.42
19150;BME280;9707;49.158;8.632;2023-02-04T02:59:14;101887.09;;;17.71;41.72
19150;BME280;9707;49.158;8.632;2023-02-04T03:01:40;101885.31;;;17.71;41.62
19150;BME280;9707;49.158;8.632;2023-02-04T03:04:06;101888.84;;;17.72;41.71
19150;BME280;9707;49.158;8.632;2023-02-04T03:06:32;101899.63;;;17.72;41.73
19150;BME280;9707;49.158;8.632;2023-02-04T03:08:58;101901.41;;;17.73;41.65
19150;BME280;9707;49.158;8.632;2023-02-04T03:11:23;101896.88;;;17.73;41.75
19150;BME280;9707;49.158;8.632;2023-02-04T03:13:51;101907.66;;;17.73;41.62
19150;BME280;9707;49.158;8.632;2023-02-04T03:16:17;101898.78;;;17.71;41.47
19150;BME280;9707;49.158;8.632;2023-02-04T03:18:42;101902.34;;;17.72;41.73
19150;BME280;9707;49.158;8.632;2023-02-04T03:21:08;101914.06;;;17.71;41.59
19150;BME280;9707;49.158;8.632;2023-02-04T03:23:34;101919.44;;;17.71;41.53
19150;BME280;9707;49.158;8.632;2023-02-04T03:26:00;101924.78;;;17.72;41.60
19150;BME280;9707;49.158;8.632;2023-02-04T03:28:26;101921.19;;;17.72;41.58
19150;BME280;9707;49.158;8.632;2023-02-04T03:30:51;101925.72;;;17.71;41.54
19150;BME280;9707;49.158;8.632;2023-02-04T03:33:22;101927.41;;;17.74;41.45
19150;BME280;9707;49.158;8.632;2023-02-04T03:35:48;101926.59;;;17.72;41.49
19150;BME280;9707;49.158;8.632;2023-02-04T03:38:13;101921.28;;;17.70;41.51
19150;BME280;9707;49.158;8.632;2023-02-04T03:40:38;101921.34;;;17.69;41.63
19150;BME280;9707;49.158;8.632;2023-02-04T03:43:04;101917.75;;;17.68;41.32
19150;BME280;9707;49.158;8.632;2023-02-04T03:45:29;101926.75;;;17.69;41.39
19150;BME280;9707;49.158;8.632;2023-02-04T03:47:54;101931.25;;;17.68;41.39
19150;BME280;9707;49.158;8.632;2023-02-04T03:50:19;101928.59;;;17.67;41.67
19150;BME280;9707;49.158;8.632;2023-02-04T03:52:45;101922.38;;;17.66;41.38
19150;BME280;9707;49.158;8.632;2023-02-04T03:55:10;101926.88;;;17.66;41.42
19150;BME280;9707;49.158;8.632;2023-02-04T03:57:35;101928.59;;;17.67;41.40
19150;BME280;9707;49.158;8.632;2023-02-04T04:00:01;101931.31;;;17.67;41.47
19150;BME280;9707;49.158;8.632;2023-02-04T04:02:26;101928.59;;;17.67;41.25
19150;BME280;9707;49.158;8.632;2023-02-04T04:04:51;101923.22;;;17.67;41.14
19150;BME280;9707;49.158;8.632;2023-02-04T04:07:16;101921.34;;;17.69;41.20
19150;BME280;9707;49.158;8.632;2023-02-04T04:09:42;101924.84;;;17.71;41.22
19150;BME280;9707;49.158;8.632;2023-02-04T04:12:07;101924.84;;;17.71;41.24
19150;BME280;9707;49.158;8.632;2023-02-04T04:14:32;101940.06;;;17.72;41.23
19150;BME280;9707;49.158;8.632;2023-02-04T04:16:58;101941.75;;;17.74;40.98
19150;BME280;9707;49.158;8.632;2023-02-04T04:19:23;101961.50;;;17.75;41.11
19150;BME280;9707;49.158;8.632;2023-02-04T04:21:48;101965.09;;;17.75;41.11
19150;BME280;9707;49.158;8.632;2023-02-04T04:24:14;101961.44;;;17.76;41.02
19150;BME280;9707;49.158;8.632;2023-02-04T04:26:39;101960.63;;;17.74;40.97
19150;BME280;9707;49.158;8.632;2023-02-04T04:29:04;101957.88;;;17.76;40.89
19150;BME280;9707;49.158;8.632;2023-02-04T04:31:30;101955.16;;;17.76;40.92
19150;BME280;9707;49.158;8.632;2023-02-04T04:33:55;101952.41;;;17.77;40.99
19150;BME280;9707;49.158;8.632;2023-02-04T04:36:20;101944.38;;;17.76;40.94
19150;BME280;9707;49.158;8.632;2023-02-04T04:38:45;101939.00;;;17.76;40.92
19150;BME280;9707;49.158;8.632;2023-02-04T04:41:11;101949.84;;;17.74;40.67
19150;BME280;9707;49.158;8.632;2023-02-04T04:43:36;101959.81;;;17.72;41.01
19150;BME280;9707;49.158;8.632;2023-02-04T04:46:01;101966.16;;;17.71;40.92
19150;BME280;9707;49.158;8.632;2023-02-04T04:48:26;101966.97;;;17.73;40.94
19150;BME280;9707;49.158;8.632;2023-02-04T04:50:52;101977.69;;;17.75;40.93
19150;BME280;9707;49.158;8.632;2023-02-04T04:53:17;101974.88;;;17.78;40.75
19150;BME280;9707;49.158;8.632;2023-02-04T04:55:42;101972.97;;;17.80;40.66
19150;BME280;9707;49.158;8.632;2023-02-04T04:58:08;101970.16;;;17.83;40.73
19150;BME280;9707;49.158;8.632;2023-02-04T05:00:34;101966.44;;;17.85;40.65
19150;BME280;9707;49.158;8.632;2023-02-04T05:02:59;101954.72;;;17.86;40.53
19150;BME280;9707;49.158;8.632;2023-02-04T05:05:24;101953.69;;;17.89;40.67
19150;BME280;9707;49.158;8.632;2023-02-04T05:07:50;101968.03;;;17.89;40.39
19150;BME280;9707;49.158;8.632;2023-02-04T05:10:15;101976.06;;;17.91;40.43
19150;BME280;9707;49.158;8.632;2023-02-04T05:12:41;101987.69;;;17.93;40.55
19150;BME280;9707;49.158;8.632;2023-02-04T05:15:07;101993.06;;;17.93;40.39
19150;BME280;9707;49.158;8.632;2023-02-04T05:17:32;101993.88;;;17.95;40.51
19150;BME280;9707;49.158;8.632;2023-02-04T05:19:58;101999.13;;;17.98;40.50
19150;BME280;9707;49.158;8.632;2023-02-04T05:22:23;101992.78;;;17.99;40.35
19150;BME280;9707;49.158;8.632;2023-02-04T05:24:48;101998.13;;;18.00;39.97
19150;BME280;9707;49.158;8.632;2023-02-04T05:27:13;101982.81;;;18.01;40.28
19150;BME280;9707;49.158;8.632;2023-02-04T05:29:39;101984.50;;;18.03;40.20
19150;BME280;9707;49.158;8.632;2023-02-04T05:32:04;101982.69;;;18.04;40.32
19150;BME280;9707;49.158;8.632;2023-02-04T05:34:29;101982.69;;;18.04;40.03
19150;BME280;9707;49.158;8.632;2023-02-04T05:36:55;101984.44;;;18.05;40.12
19150;BME280;9707;49.158;8.632;2023-02-04T05:39:20;101991.56;;;18.06;40.25
19150;BME280;9707;49.158;8.632;2023-02-04T05:41:46;101991.56;;;18.06;40.25
19150;BME280;9707;49.158;8.632;2023-02-04T05:44:11;101987.91;;;18.07;40.15
19150;BME280;9707;49.158;8.632;2023-02-04T05:46:36;101996.91;;;18.07;40.12
19150;BME280;9707;49.158;8.632;2023-02-04T05:49:03;102004.09;;;18.07;39.93
19150;BME280;9707;49.158;8.632;2023-02-04T05:51:28;102013.03;;;18.09;40.02
19150;BME280;9707;49.158;8.632;2023-02-04T05:53:54;102014.75;;;18.10;40.10
19150;BME280;9707;49.158;8.632;2023-02-04T05:56:19;102020.16;;;18.10;39.88
19150;BME280;9707;49.158;8.632;2023-02-04T05:58:44;102024.59;;;18.11;39.73
19150;BME280;9707;49.158;8.632;2023-02-04T06:01:10;102024.66;;;18.09;39.81
19150;BME280;9707;49.158;8.632;2023-02-04T06:03:35;102032.69;;;18.11;39.81
19150;BME280;9707;49.158;8.632;2023-02-04T06:06:00;102040.72;;;18.12;40.02
19150;BME280;9707;49.158;8.632;2023-02-04T06:08:26;102043.44;;;18.12;40.20
19150;BME280;9707;49.158;8.632;2023-02-04T06:10:51;102049.72;;;18.13;39.85
19150;BME280;9707;49.158;8.632;2023-02-04T06:13:16;102048.75;;;18.14;39.84
19150;BME280;9707;49.158;8.632;2023-02-04T06:15:42;102061.28;;;18.15;39.83
19150;BME280;9707;49.158;8.632;2023-02-04T06:18:07;102054.00;;;18.17;39.52
19150;BME280;9707;49.158;8.632;2023-02-04T06:20:33;102055.84;;;18.16;39.83
19150;BME280;9707;49.158;8.632;2023-02-04T06:22:58;102057.59;;;18.17;39.75
19150;BME280;9707;49.158;8.632;2023-02-04T06:25:23;102064.78;;;18.17;39.85
19150;BME280;9707;49.158;8.632;2023-02-04T06:27:49;102059.41;;;18.17;39.69
19150;BME280;9707;49.158;8.632;2023-02-04T06:30:14;102062.91;;;18.19;39.68
19150;BME280;9707;49.158;8.632;2023-02-04T06:32:40;102068.31;;;18.19;39.60
19150;BME280;9707;49.158;8.632;2023-02-04T06:35:06;102071.00;;;18.19;39.60
19150;BME280;9707;49.158;8.632;2023-02-04T06:37:32;102069.25;;;18.18;39.52
19150;BME280;9707;49.158;8.632;2023-02-04T06:39:57;102079.09;;;18.19;39.64
19150;BME280;9707;49.158;8.632;2023-02-04T06:42:23;102089.06;;;18.17;39.70
19150;BME280;9707;49.158;8.632;2023-02-04T06:44:49;102078.28;;;18.17;39.68
19150;BME280;9707;49.158;8.632;2023-02-04T06:47:14;102080.91;;;18.18;39.70
19150;BME280;9707;49.158;8.632;2023-02-04T06:49:40;102076.41;;;18.19;39.64
19150;BME280;9707;49.158;8.632;2023-02-04T06:52:05;102087.19;;;18.19;39.32
19150;BME280;9707;49.158;8.632;2023-02-04T06:54:30;102083.59;;;18.18;39.43
19150;BME280;9707;49.158;8.632;2023-02-04T06:56:56;102085.44;;;18.18;39.66
19150;BME280;9707;49.158;8.632;2023-02-04T06:59:27;102085.44;;;18.18;39.44
19150;BME280;9707;49.158;8.632;2023-02-04T07:01:56;102093.44;;;18.19;39.34
19150;BME280;9707;49.158;8.632;2023-02-04T07:04:21;102089.91;;;18.19;39.45
19150;BME280;9707;49.158;8.632;2023-02-04T07:06:47;102091.63;;;18.20;39.36
19150;BME280;9707;49.158;8.632;2023-02-04T07:09:12;102097.94;;;18.20;39.38
19150;BME280;9707;49.158;8.632;2023-02-04T07:11:37;102105.13;;;18.20;39.48
19150;BME280;9707;49.158;8.632;2023-02-04T07:14:02;102101.47;;;18.21;39.36
19150;BME280;9707;49.158;8.632;2023-02-04T07:16:28;102109.56;;;18.21;39.37
19150;BME280;9707;49.158;8.632;2023-02-04T07:18:53;102120.31;;;18.22;39.41
19150;BME280;9707;49.158;8.632;2023-02-04T07:21:18;102123.91;;;18.23;39.19
19150;BME280;9707;49.158;8.632;2023-02-04T07:23:43;102121.19;;;18.23;39.48
19150;BME280;9707;49.158;8.632;2023-02-04T07:26:09;102123.91;;;18.23;39.20
19150;BME280;9707;49.158;8.632;2023-02-04T07:28:34;102119.34;;;18.23;39.24
19150;BME280;9707;49.158;8.632;2023-02-04T07:31:00;102126.59;;;18.23;39.05
19150;BME280;9707;49.158;8.632;2023-02-04T07:33:26;102134.69;;;18.23;39.09
19150;BME280;9707;49.158;8.632;2023-02-04T07:35:51;102146.34;;;18.23;39.11
19150;BME280;9707;49.158;8.632;2023-02-04T07:38:18;102143.69;;;18.22;39.01
19150;BME280;9707;49.158;8.632;2023-02-04T07:40:44;102143.69;;;18.22;39.22
19150;BME280;9707;49.158;8.632;2023-02-04T07:43:10;102149.09;;;18.22;39.12
19150;BME280;9707;49.158;8.632;2023-02-04T07:45:35;102149.09;;;18.22;39.10
19150;BME280;9707;49.158;8.632;2023-02-04T07:48:00;102149.09;;;18.22;39.05
19150;BME280;9707;49.158;8.632;2023-02-04T07:50:26;102149.09;;;18.22;39.17
19150;BME280;9707;49.158;8.632;2023-02-04T07:52:51;102154.47;;;18.22;39.35
19150;BME280;9707;49.158;8.632;2023-02-04T07:55:16;102168.84;;;18.22;39.09
19150;BME280;9707;49.158;8.632;2023-02-04T07:57:42;102169.81;;;18.21;39.21
19150;BME280;9707;49.158;8.632;2023-02-04T08:00:08;102175.22;;;18.21;39.32
19150;BME280;9707;49.158;8.632;2023-02-04T08:02:33;102172.44;;;18.23;39.15
19150;BME280;9707;49.158;8.632;2023-02-04T08:04:59;102175.22;;;18.21;39.04
19150;BME280;9707;49.158;8.632;2023-02-04T08:07:24;102183.25;;;18.23;39.02
19150;BME280;9707;49.158;8.632;2023-02-04T08:09:49;102185.03;;;18.22;39.20
19150;BME280;9707;49.158;8.632;2023-02-04T08:12:15;102184.16;;;18.22;39.02
19150;BME280;9707;49.158;8.632;2023-02-04T08:14:40;102184.09;;;18.23;39.19
19150;BME280;9707;49.158;8.632;2023-02-04T08:17:05;102182.28;;;18.24;39.20
19150;BME280;9707;49.158;8.632;2023-02-04T08:19:30;102193.09;;;18.24;39.15
19150;BME280;9707;49.158;8.632;2023-02-04T08:21:56;102187.69;;;18.24;39.17
19150;BME280;9707;49.158;8.632;2023-02-04T08:24:21;102192.13;;;18.25;38.90
19150;BME280;9707;49.158;8.632;2023-02-04T08:26:46;102192.13;;;18.25;39.38
19150;BME280;9707;49.158;8.632;2023-02-04T08:29:11;102197.47;;;18.26;39.17
19150;BME280;9707;49.158;8.632;2023-02-04T08:31:37;102201.91;;;18.27;39.25
19150;BME280;9707;49.158;8.632;2023-02-04T08:34:03;102203.66;;;18.28;39.24
19150;BME280;9707;49.158;8.632;2023-02-04T08:36:29;102199.16;;;18.29;39.18
19150;BME280;9707;49.158;8.632;2023-02-04T08:38:55;102208.94;;;18.31;39.30
19150;BME280;9707;49.158;8.632;2023-02-04T08:41:20;102200.91;;;18.30;39.13
19150;BME280;9707;49.158;8.632;2023-02-04T08:43:45;102208.06;;;18.31;39.08
19150;BME280;9707;49.158;8.632;2023-02-04T08:46:10;102216.16;;;18.31;39.10
19150;BME280;9707;49.158;8.632;2023-02-04T08:48:36;102217.97;;;18.30;39.09
19150;BME280;9707;49.158;8.632;2023-02-04T08:51:01;102230.53;;;18.31;39.14
19150;BME280;9707;49.158;8.632;2023-02-04T08:53:26;102241.28;;;18.33;39.17
19150;BME280;9707;49.158;8.632;2023-02-04T08:55:52;102240.44;;;18.31;39.08
19150;BME280;9707;49.158;8.632;2023-02-04T08:58:17;102225.19;;;18.30;38.98
19150;BME280;9707;49.158;8.632;2023-02-04T09:00:42;102241.38;;;18.30;38.71
19150;BME280;9707;49.158;8.632;2023-02-04T09:03:08;102235.19;;;18.28;38.61
19150;BME280;9707;49.158;8.632;2023-02-04T09:05:33;102244.13;;;18.28;38.44
19150;BME280;9707;49.158;8.632;2023-02-04T09:07:58;102242.34;;;18.29;38.68
19150;BME280;9707;49.158;8.632;2023-02-04T09:10:23;102245.03;;;18.29;38.69
19150;BME280;9707;49.158;8.632;2023-02-04T09:12:49;102240.59;;;18.28;38.57
19150;BME280;9707;49.158;8.632;2023-02-04T09:15:20;102251.38;;;18.28;38.85
19150;BME280;9707;49.158;8.632;2023-02-04T09:17:45;102245.03;;;18.29;38.73
19150;BME280;9707;49.158;8.632;2023-02-04T09:20:11;102258.44;;;18.30;39.08
19150;BME280;9707;49.158;8.632;2023-02-04T09:22:36;102260.16;;;18.33;38.56
19150;BME280;9707;49.158;8.632;2023-02-04T09:25:02;102261.94;;;18.34;38.63
19150;BME280;9707;49.158;8.632;2023-02-04T09:27:27;102262.81;;;18.34;38.81
19150;BME280;9707;49.158;8.632;2023-02-04T09:29:52;102269.03;;;18.36;38.81
19150;BME280;9707;49.158;8.632;2023-02-04T09:32:17;102274.34;;;18.38;38.33
19150;BME280;9707;49.158;8.632;2023-02-04T09:34:43;102267.19;;;18.37;38.01
19150;BME280;9707;49.158;8.632;2023-02-04T09:37:08;102271.63;;;18.38;38.06
19150;BME280;9707;49.158;8.632;2023-02-04T09:39:33;102265.31;;;18.39;38.13
19150;BME280;9707;49.158;8.632;2023-02-04T09:41:58;102264.38;;;18.40;38.29
19150;BME280;9707;49.158;8.632;2023-02-04T09:44:25;102265.19;;;18.42;38.01
19150;BME280;9707;49.158;8.632;2023-02-04T09:46:54;102265.19;;;18.42;37.76
19150;BME280;9707;49.158;8.632;2023-02-04T09:49:20;102267.88;;;18.42;37.70
19150;BME280;9707;49.158;8.632;2023-02-04T09:51:46;102278.63;;;18.43;37.74
19150;BME280;9707;49.158;8.632;2023-02-04T09:54:15;102270.47;;;18.45;37.70
19150;BME280;9707;49.158;8.632;2023-02-04T09:56:41;102270.41;;;18.46;37.61
19150;BME280;9707;49.158;8.632;2023-02-04T09:59:12;102278.50;;;18.46;37.70
19150;BME280;9707;49.158;8.632;2023-02-04T10:01:38;102270.31;;;18.48;37.54
19150;BME280;9707;49.158;8.632;2023-02-04T10:04:04;102266.69;;;18.49;37.23
19150;BME280;9707;49.158;8.632;2023-02-04T10:06:30;102269.41;;;18.49;37.48
19150;BME280;9707;49.158;8.632;2023-02-04T10:08:55;102276.50;;;18.51;37.81
19150;BME280;9707;49.158;8.632;2023-02-04T10:11:23;102275.50;;;18.54;37.75
19150;BME280;9707;49.158;8.632;2023-02-04T10:13:50;102274.53;;;18.55;37.39
19150;BME280;9707;49.158;8.632;2023-02-04T10:16:32;102283.50;;;18.55;37.22
19150;BME280;9707;49.158;8.632;2023-02-04T10:19:01;102285.34;;;18.55;36.51
19150;BME280;9707;49.158;8.632;2023-02-04T10:21:31;102302.59;;;18.51;36.42
19150;BME280;9707;49.158;8.632;2023-02-04T10:23:58;102296.41;;;18.49;36.58
19150;BME280;9707;49.158;8.632;2023-02-04T10:26:27;102299.16;;;18.47;36.91
19150;BME280;9707;49.158;8.632;2023-02-04T10:29:00;102295.56;;;18.47;36.88
19150;BME280;9707;49.158;8.632;2023-02-04T10:31:35;102299.09;;;18.49;37.16
19150;BME280;9707;49.158;8.632;2023-02-04T10:34:21;102291.78;;;18.51;37.34
19150;BME280;9707;49.158;8.632;2023-02-04T10:36:52;102294.38;;;18.54;37.61
19150;BME280;9707;49.158;8.632;2023-02-04T10:39:23;102290.72;;;18.55;37.24
19150;BME280;9707;49.158;8.632;2023-02-04T10:47:04;102286.03;;;18.60;36.68
19150;BME280;9707;49.158;8.632;2023-02-04T10:49:30;102289.53;;;18.62;36.20
19150;BME280;9707;49.158;8.632;2023-02-04T10:51:56;102286.75;;;18.63;36.63
19150;BME280;9707;49.158;8.632;2023-02-04T10:54:24;102287.66;;;18.64;36.56
19150;BME280;9707;49.158;8.632;2023-02-04T10:57:13;102281.38;;;18.63;36.19
19150;BME280;9707;49.158;8.632;2023-02-04T10:59:41;102288.47;;;18.66;36.47
19150;BME280;9707;49.158;8.632;2023-02-04T11:02:39;102295.59;;;18.67;36.69
19150;BME280;9707;49.158;8.632;2023-02-04T11:05:29;102291.16;;;18.66;36.62
19150;BME280;9707;49.158;8.632;2023-02-04T11:07:55;102288.47;;;18.66;36.42
19150;BME280;9707;49.158;8.632;2023-02-04T11:10:24;102296.56;;;18.66;36.09
19150;BME280;9707;49.158;8.632;2023-02-04T11:15:43;102289.19;;;18.69;36.33
19150;BME280;9707;49.158;8.632;2023-02-04T11:20:37;102286.44;;;18.71;36.10
19150;BME280;9707;49.158;8.632;2023-02-04T11:23:29;102289.03;;;18.74;35.94
19150;BME280;9707;49.158;8.632;2023-02-04T11:26:15;102282.72;;;18.73;35.77
19150;BME280;9707;49.158;8.632;2023-02-04T11:39:37;102294.28;;;18.77;35.41
19150;BME280;9707;49.158;8.632;2023-02-04T11:42:05;102287.00;;;18.79;34.54
19150;BME280;9707;49.158;8.632;2023-02-04T11:44:38;102295.09;;;18.79;34.46
19150;BME280;9707;49.158;8.632;2023-02-04T11:47:06;102287.88;;;18.79;34.03
19150;BME280;9707;49.158;8.632;2023-02-04T11:49:35;102292.25;;;18.82;33.98
19150;BME280;9707;49.158;8.632;2023-02-04T11:52:05;102286.78;;;18.83;33.89
19150;BME280;9707;49.158;8.632;2023-02-04T11:54:33;102277.91;;;18.81;33.96
19150;BME280;9707;49.158;8.632;2023-02-04T11:56:59;102288.59;;;18.83;34.13
19150;BME280;9707;49.158;8.632;2023-02-04T11:59:25;102295.78;;;18.84;33.80
19150;BME280;9707;49.158;8.632;2023-02-04T12:01:50;102288.59;;;18.83;33.82
19150;BME280;9707;49.158;8.632;2023-02-04T12:04:22;102291.31;;;18.83;33.86
19150;BME280;9707;49.158;8.632;2023-02-04T12:07:02;102285.09;;;18.81;33.89
19150;BME280;9707;49.158;8.632;2023-02-04T12:09:29;102282.34;;;18.82;33.90
19150;BME280;9707;49.158;8.632;2023-02-04T12:12:02;102275.94;;;18.85;34.22
19150;BME280;9707;49.158;8.632;2023-02-04T12:14:36;102274.03;;;18.87;33.80
19150;BME280;9707;49.158;8.632;2023-02-04T12:17:14;102272.28;;;18.86;33.89
19150;BME280;9707;49.158;8.632;2023-02-04T12:19:40;102275.78;;;18.88;33.76
19150;BME280;9707;49.158;8.632;2023-02-04T12:22:05;102283.81;;;18.89;33.05
19150;BME280;9707;49.158;8.632;2023-02-04T12:24:31;102282.97;;;18.89;32.37
19150;BME280;9707;49.158;8.632;2023-02-04T12:26:56;102279.31;;;18.90;32.32
19150;BME280;9707;49.158;8.632;2023-02-04T12:29:21;102275.66;;;18.91;31.97
19150;BME280;9707;49.158;8.632;2023-02-04T12:31:46;102283.72;;;18.92;32.45
19150;BME280;9707;49.158;8.632;2023-02-04T12:34:12;102290.78;;;18.95;32.52
19150;BME280;9707;49.158;8.632;2023-02-04T12:36:37;102288.91;;;18.97;32.60
19150;BME280;9707;49.158;8.632;2023-02-04T12:39:02;102278.94;;;18.99;32.11
19150;BME280;9707;49.158;8.632;2023-02-04T12:41:27;102286.06;;;19.00;31.63
19150;BME280;9707;49.158;8.632;2023-02-04T12:43:53;102286.06;;;19.00;31.60
19150;BME280;9707;49.158;8.632;2023-02-04T12:46:19;102281.47;;;19.02;31.97
19150;BME280;9707;49.158;8.632;2023-02-04T12:48:45;102282.28;;;19.04;31.69
19150;BME280;9707;49.158;8.632;2023-02-04T12:51:10;102288.56;;;19.04;32.00
19150;BME280;9707;49.158;8.632;2023-02-04T12:53:35;102293.97;;;19.04;32.04
19150;BME280;9707;49.158;8.632;2023-02-04T12:56:01;102294.84;;;19.05;31.97
19150;BME280;9707;49.158;8.632;2023-02-04T12:58:26;102298.47;;;19.04;32.02
19150;BME280;9707;49.158;8.632;2023-02-04T13:00:51;102300.25;;;19.05;32.05
19150;BME280;9707;49.158;8.632;2023-02-04T13:03:17;102294.84;;;19.05;32.20
19150;BME280;9707;49.158;8.632;2023-02-04T13:05:42;102301.06;;;19.07;32.62
19150;BME280;9707;49.158;8.632;2023-02-04T13:08:07;102291.22;;;19.06;32.21
19150;BME280;9707;49.158;8.632;2023-02-04T13:10:33;102284.06;;;19.05;31.99
19150;BME280;9707;49.158;8.632;2023-02-04T13:12:58;102293.91;;;19.06;32.44
19150;BME280;9707;49.158;8.632;2023-02-04T13:15:24;102294.84;;;19.05;31.84
19150;BME280;9707;49.158;8.632;2023-02-04T13:17:50;102293.97;;;19.04;31.62
19150;BME280;9707;49.158;8.632;2023-02-04T13:20:15;102293.06;;;19.04;31.83